Main page
METAR-TAF:

METAR-TAF

Airports :

Base Aérea de Anápolis

Anápolis, Goiás, Brazil

latitude: 16-14S, longitude: 048-58W, elevation: 1137 m

Current weather observation

The report was made 1 hour and 11 minutes ago, at 01:00 UTC
Wind 9 kt from the East
Temperature 19°C
Humidity 40%
Pressure 1023 hPa
Visibility 10 km or more
no clouds below 1500 m and no cumulonimbus

METAR: SBAN 230100Z 10009KT CAVOK 19/05 Q1023

Time: 23:11 (02:11 UTC)

Forecast

The report was made 4 hours and 11 minutes ago, at 22:00 UTC
Forecast valid from 23 at 00 UTC to 23 at 12 UTC
Wind 6 kt from the East/Southeast
Visibility 10 km or more
no clouds below 1500 m and no cumulonimbus
Becoming
from 23 at 02 UTC to 23 at 04 UTC
Wind 6 kt from the Northeast

TAF: SBAN 222200Z 2300/2312 12006KT CAVOK TN17/2308Z TX19/2311Z BECMG 2302/2304 05006KT RMK PEW

Weather observations and forecasts of more than 4000 airports (METAR and TAF reports).

The available stations are represented by yellow and red dots on the map.

Hover mouse over dot to see the name of the station.

Then click to see weather observations and forecasts.

To change the map : click on the green buttons with a black cross to zoom in, on the green button with a dash to zoom out, or on the green arrows for adjacent maps.


METAR-TAF: